»·PEaware :: N737WA KCMA-KSNA

N737WA :: KCMA-KSNA

FLIGHT INFORMATION

Flight Status: Arrived
Operator: Privately registered:
United States
More flights under this callsign
Pilot: Shane B. (33724)
Aircraft: CESSNA 172 SKYHAWK
(C172)
More flights by this aircraft type
Origin: KCMA Camarillo
United States
Destination: KSNA John Wayne-Orange Co
United States
More flights between these airports :: More routes between these airports
Route: CANOG LAX FERMY
File this flight plan on PilotEdge
Remarks: Coastal Route Transition
Altitude:
(Current/Filed)
5,500ft
Speed:
(Current/Filed)
120kts
Departed: 22-Feb-21 08:10 PM
Arrived: 22-Feb-21 08:54 PM
Distance/Time
Traveled:
69nm/0:43
Distance/Time
To Go:
Arrived

Flight Plot

Page will automatically refresh every two minutes.

Flight plan parsing failed; only flown route is shown


Map Options




Map Legend


Flown Route
Filed Route
Departure Airport
Arrival Airport
Navaid (VOR, NDB)
Fix

Horizontal Profiles

Position Reports

Time Latitude Longitude Heading Altitude Ground
Speed
22-Feb-21 19:49 34.210640 -119.084817 359 73ft 0kts
22-Feb-21 19:50 34.210640 -119.084817 359 73ft 0kts
22-Feb-21 19:51 34.210640 -119.084817 359 73ft 0kts
22-Feb-21 19:52 34.210640 -119.084817 359 73ft 0kts
22-Feb-21 19:53 34.210640 -119.084817 359 73ft 0kts
22-Feb-21 19:54 34.210640 -119.084817 359 73ft 0kts
22-Feb-21 19:55 34.210640 -119.084817 359 73ft 0kts
22-Feb-21 19:56 34.210640 -119.084817 359 73ft 0kts
22-Feb-21 19:57 34.210640 -119.084817 359 73ft 0kts
22-Feb-21 19:58 34.210640 -119.084817 359 73ft 0kts
22-Feb-21 19:59 34.210640 -119.084817 359 73ft 0kts
22-Feb-21 20:00 34.210640 -119.084817 359 73ft 0kts
22-Feb-21 20:01 34.210640 -119.084817 359 73ft 0kts
22-Feb-21 20:02 34.211350 -119.084632 2 73ft 11kts
22-Feb-21 20:03 34.212764 -119.084620 1 76ft 0kts
22-Feb-21 20:04 34.212764 -119.084620 1 76ft 0kts
22-Feb-21 20:05 34.212764 -119.084620 1 76ft 0kts
22-Feb-21 20:06 34.212764 -119.084620 1 76ft 0kts
22-Feb-21 20:07 34.212764 -119.084620 1 76ft 0kts
22-Feb-21 20:08 34.213677 -119.084720 296 76ft 10kts
22-Feb-21 20:09 34.213852 -119.108083 276 684ft 82kts
22-Feb-21 20:10 34.228265 -119.104153 95 1501ft 92kts
22-Feb-21 20:11 34.223122 -119.072641 99 2218ft 100kts
22-Feb-21 20:12 34.220468 -119.041047 93 2995ft 94kts
22-Feb-21 20:13 34.218543 -119.009847 93 3497ft 110kts
22-Feb-21 20:14 34.216208 -118.970715 93 3490ft 122kts
22-Feb-21 20:15 34.213783 -118.930476 93 3489ft 123kts
22-Feb-21 20:16 34.211305 -118.889975 93 3489ft 123kts
22-Feb-21 20:17 34.208959 -118.850882 90 3753ft 105kts
22-Feb-21 20:18 34.208401 -118.817053 89 4439ft 104kts
22-Feb-21 20:19 34.207798 -118.782830 89 5126ft 104kts
22-Feb-21 20:20 34.201666 -118.750428 121 5781ft 106kts
22-Feb-21 20:21 34.185449 -118.715464 97 5605ft 125kts
22-Feb-21 20:22 34.186872 -118.675032 85 5516ft 120kts
22-Feb-21 20:23 34.188752 -118.635833 85 5513ft 118kts
22-Feb-21 20:24 34.189168 -118.596863 98 5510ft 119kts
22-Feb-21 20:25 34.169631 -118.568723 150 5508ft 117kts
22-Feb-21 20:26 34.143025 -118.547527 141 5506ft 116kts
22-Feb-21 20:27 34.118994 -118.522947 151 5505ft 113kts
22-Feb-21 20:28 34.091032 -118.509924 167 5505ft 110kts
22-Feb-21 20:29 34.062344 -118.499924 166 5506ft 109kts
22-Feb-21 20:30 34.034622 -118.487607 159 5512ft 110kts
22-Feb-21 20:31 34.007065 -118.473437 159 5510ft 111kts
22-Feb-21 20:32 33.978258 -118.458431 157 5512ft 119kts
22-Feb-21 20:33 33.949570 -118.442403 157 5513ft 121kts
22-Feb-21 20:34 33.923918 -118.425431 142 5515ft 123kts
22-Feb-21 20:35 33.899771 -118.399667 136 5514ft 125kts
22-Feb-21 20:36 33.876683 -118.368460 141 5512ft 125kts
22-Feb-21 20:37 33.849730 -118.342938 145 5511ft 124kts
22-Feb-21 20:38 33.822482 -118.317232 145 5509ft 124kts
22-Feb-21 20:39 33.794809 -118.291136 146 5336ft 135kts
22-Feb-21 20:40 33.763334 -118.259834 141 4076ft 159kts
22-Feb-21 20:41 33.732439 -118.223881 112 2695ft 163kts
22-Feb-21 20:42 33.716368 -118.177611 112 1922ft 126kts
22-Feb-21 20:43 33.705722 -118.144304 111 1930ft 100kts
22-Feb-21 20:44 33.696264 -118.115158 111 1930ft 92kts
22-Feb-21 20:45 33.684639 -118.080147 112 1931ft 131kts
22-Feb-21 20:46 33.671821 -118.041481 112 1928ft 126kts
22-Feb-21 20:47 33.671354 -118.000393 90 1622ft 128kts
22-Feb-21 20:48 33.672247 -117.958679 87 1169ft 128kts
22-Feb-21 20:49 33.673666 -117.918414 84 1068ft 120kts
22-Feb-21 20:50 33.684617 -117.885772 30 1230ft 109kts
22-Feb-21 20:51 33.705104 -117.868165 105 1180ft 95kts
22-Feb-21 20:52 33.688880 -117.860555 206 373ft 72kts
22-Feb-21 20:53 33.677988 -117.868121 305 60ft 14kts
22-Feb-21 20:54 33.678109 -117.868433 293 60ft 0kts
22-Feb-21 20:55 33.679686 -117.868565 164 60ft 1kts
22-Feb-21 20:56 33.678308 -117.869281 164 60ft 0kts
22-Feb-21 20:57 33.678308 -117.869281 164 60ft 0kts

Navigation Log

Ident Type
Flight plan parsing failed, navigation log unavailable